Time;durP1;ratioP1;P1;durP2;ratioP2;P2;SDS_P1;SDS_P2;PMS_P1;PMS_P2;Temp;Humidity;BMP_temperature;BMP_pressure;BME280_temperature;BME280_humidity;BME280_pressure;Samples;Min_cycle;Max_cycle;Signal;HPM_P1;HPM_P2
2022/03/24 07:16:41;;;;;;;41.42;15.02;;;8.30;99.90;;;;;;3127453;28;22948;-72
2022/03/24 07:19:12;;;;;;;29.77;14.35;;;8.40;99.90;;;;;;5038366;28;20417;-72
2022/03/24 07:21:38;;;;;;;38.95;14.18;;;8.50;99.90;;;;;;5043836;28;20040;-72
2022/03/24 07:24:04;;;;;;;31.85;13.90;;;8.60;99.90;;;;;;5044052;28;20022;-72
2022/03/24 07:26:36;;;;;;;36.65;15.35;;;8.70;99.90;;;;;;5042403;28;20033;-71
2022/03/24 07:29:10;;;;;;;35.15;14.40;;;8.80;99.90;;;;;;5052699;28;20037;-73
2022/03/24 07:31:36;;;;;;;32.03;14.40;;;8.90;99.90;;;;;;5045087;28;20057;-71
2022/03/24 07:34:15;;;;;;;47.35;14.60;;;8.90;99.90;;;;;;5044686;28;20117;-71
2022/03/24 07:36:40;;;;;;;38.35;13.65;;;8.90;99.90;;;;;;5045032;28;20022;-70
2022/03/24 07:39:06;;;;;;;33.05;14.20;;;9.00;99.90;;;;;;5045216;28;20026;-71
2022/03/24 07:41:32;;;;;;;30.42;12.40;;;9.00;99.90;;;;;;5044605;28;20025;-71
2022/03/24 07:43:59;;;;;;;38.05;13.25;;;9.10;99.90;;;;;;5044532;28;20108;-69
2022/03/24 07:46:24;;;;;;;34.13;13.25;;;9.20;99.90;;;;;;5029477;28;20025;-70
2022/03/24 07:49:11;;;;;;;38.75;14.13;;;9.30;99.90;;;;;;5063915;28;20036;-70
2022/03/24 07:51:38;;;;;;;30.88;13.60;;;9.50;99.90;;;;;;5058558;28;20029;-72
2022/03/24 07:54:07;;;;;;;36.08;12.25;;;9.60;99.90;;;;;;5047634;28;20076;-72
2022/03/24 07:56:35;;;;;;;37.05;13.40;;;9.70;99.90;;;;;;5046155;28;20088;-72
2022/03/24 07:59:01;;;;;;;39.65;14.80;;;9.90;99.90;;;;;;5065038;28;20025;-70
2022/03/24 08:01:28;;;;;;;31.17;12.38;;;9.90;99.90;;;;;;5054340;28;20014;-71
2022/03/24 08:03:55;;;;;;;26.98;11.55;;;10.00;99.90;;;;;;5046745;28;20044;-71
2022/03/24 08:06:22;;;;;;;33.05;13.07;;;10.20;99.90;;;;;;5056635;28;20061;-73
2022/03/24 08:08:47;;;;;;;39.20;12.23;;;10.30;99.90;;;;;;5053680;28;20049;-70
2022/03/24 08:11:13;;;;;;;27.98;11.25;;;10.60;99.90;;;;;;5052695;28;20032;-70
2022/03/24 08:13:39;;;;;;;48.72;12.05;;;10.80;99.90;;;;;;5065073;28;20048;-71
2022/03/24 08:16:05;;;;;;;31.98;12.45;;;11.00;99.90;;;;;;5047900;28;20033;-70
2022/03/24 08:18:37;;;;;;;28.25;12.57;;;11.20;99.90;;;;;;5042012;28;20528;-71
2022/03/24 08:21:03;;;;;;;34.97;13.10;;;11.30;99.90;;;;;;5034807;28;20478;-70
2022/03/24 08:23:29;;;;;;;47.35;12.88;;;11.40;99.90;;;;;;5025792;28;20052;-71
2022/03/24 08:25:54;;;;;;;30.58;12.93;;;11.50;99.90;;;;;;5046661;28;20044;-71
2022/03/24 08:28:20;;;;;;;32.33;12.70;;;11.70;99.90;;;;;;5031696;28;20040;-72
2022/03/24 08:30:46;;;;;;;37.35;12.57;;;11.80;99.90;;;;;;5041902;28;20041;-71
2022/03/24 08:33:13;;;;;;;42.30;11.02;;;12.00;99.90;;;;;;5046312;28;20021;-71
2022/03/24 08:35:40;;;;;;;34.58;13.68;;;12.20;99.90;;;;;;5044376;28;20048;-70
2022/03/24 08:38:06;;;;;;;29.88;11.25;;;12.30;99.90;;;;;;5046506;28;20026;-70
2022/03/24 08:40:32;;;;;;;34.67;13.43;;;12.40;99.90;;;;;;5047514;28;20029;-73
2022/03/24 08:42:58;;;;;;;46.47;12.05;;;12.60;99.90;;;;;;5045103;28;20053;-72
2022/03/24 08:45:24;;;;;;;30.15;13.50;;;12.70;99.90;;;;;;5029896;28;20030;-71
2022/03/24 08:47:51;;;;;;;29.50;11.75;;;12.90;99.90;;;;;;5028697;28;20092;-71
2022/03/24 08:50:18;;;;;;;39.45;13.65;;;13.10;99.90;;;;;;5046537;28;20033;-71
2022/03/24 08:52:43;;;;;;;37.45;11.70;;;13.30;99.90;;;;;;5046198;28;20025;-71
2022/03/24 08:55:13;;;;;;;37.70;13.23;;;13.50;99.90;;;;;;5048236;28;20060;-71
2022/03/24 08:57:40;;;;;;;34.15;13.10;;;13.60;99.90;;;;;;5038983;28;20030;-70
2022/03/24 09:00:12;;;;;;;38.63;13.27;;;13.80;99.90;;;;;;5031569;28;21305;-70
2022/03/24 09:02:50;;;;;;;34.53;12.30;;;13.90;99.90;;;;;;5036102;28;20033;-71
2022/03/24 09:05:16;;;;;;;26.77;11.43;;;13.90;99.90;;;;;;5040528;28;20470;-70
2022/03/24 09:07:43;;;;;;;29.75;11.95;;;14.00;99.90;;;;;;5043368;28;20040;-72
2022/03/24 09:10:10;;;;;;;30.83;12.13;;;14.00;99.90;;;;;;5040222;28;20045;-72
2022/03/24 09:12:38;;;;;;;31.63;12.50;;;14.20;99.90;;;;;;5048112;28;20033;-69
2022/03/24 09:15:07;;;;;;;34.03;11.52;;;14.40;99.90;;;;;;5047939;28;20056;-72
2022/03/24 09:17:34;;;;;;;32.28;13.63;;;14.60;99.90;;;;;;5048027;28;20049;-70
2022/03/24 09:20:00;;;;;;;35.65;13.02;;;14.80;99.90;;;;;;5027682;28;20033;-72
2022/03/24 09:22:26;;;;;;;40.25;12.65;;;15.00;99.90;;;;;;5030223;28;20025;-71
2022/03/24 09:24:52;;;;;;;31.52;12.45;;;15.20;99.90;;;;;;5039056;28;20462;-70
2022/03/24 09:27:17;;;;;;;32.28;10.60;;;15.40;99.90;;;;;;5044095;28;20117;-71
2022/03/24 09:29:43;;;;;;;34.25;12.85;;;15.50;99.90;;;;;;5047736;28;20045;-72
2022/03/24 09:32:12;;;;;;;27.35;11.65;;;15.70;99.90;;;;;;5040003;28;20034;-70
2022/03/24 09:34:44;;;;;;;35.97;12.68;;;15.90;99.90;;;;;;5043126;28;20021;-71
2022/03/24 09:37:10;;;;;;;29.25;12.77;;;16.00;99.90;;;;;;5035814;28;20081;-71
2022/03/24 09:39:36;;;;;;;25.95;11.43;;;16.20;99.90;;;;;;5024716;28;20018;-71
2022/03/24 09:42:02;;;;;;;29.38;11.93;;;16.30;99.90;;;;;;5031342;28;20072;-72
2022/03/24 09:44:29;;;;;;;30.13;11.23;;;16.30;99.90;;;;;;5044854;28;20034;-70
2022/03/24 09:46:56;;;;;;;22.92;10.27;;;16.40;99.90;;;;;;5046863;28;20025;-73
2022/03/24 09:49:21;;;;;;;21.58;9.85;;;16.50;99.90;;;;;;5046487;28;20056;-72
2022/03/24 09:51:51;;;;;;;33.28;11.77;;;16.70;99.90;;;;;;5046494;28;20087;-73
2022/03/24 09:54:17;;;;;;;29.33;11.82;;;16.80;99.90;;;;;;5047440;28;20469;-72
2022/03/24 09:56:43;;;;;;;24.80;11.15;;;16.90;99.90;;;;;;5041124;28;20085;-72
2022/03/24 09:59:20;;;;;;;33.33;11.13;;;17.00;99.90;;;;;;5047237;28;20029;-75
2022/03/24 10:01:45;;;;;;;25.27;11.45;;;17.00;99.60;;;;;;5033295;28;20029;-73
2022/03/24 10:04:14;;;;;;;27.17;10.00;;;17.10;99.90;;;;;;5033657;28;20025;-69
2022/03/24 10:06:57;;;;;;;35.10;11.52;;;17.20;99.60;;;;;;5036429;28;20032;-71
2022/03/24 10:09:40;;;;;;;34.92;12.43;;;17.30;99.00;;;;;;5046662;28;20072;-71
2022/03/24 10:12:08;;;;;;;27.33;10.60;;;17.50;98.80;;;;;;5039714;28;20056;-71
2022/03/24 10:14:35;;;;;;;26.60;11.40;;;17.80;99.20;;;;;;5045333;28;20030;-73
2022/03/24 10:17:09;;;;;;;25.38;10.55;;;17.90;98.90;;;;;;5046256;28;20544;-72
2022/03/24 10:19:36;;;;;;;27.00;11.25;;;18.10;98.90;;;;;;5047226;28;20116;-71
2022/03/24 10:22:12;;;;;;;29.20;10.30;;;18.30;98.70;;;;;;5045043;28;20105;-72
2022/03/24 10:24:42;;;;;;;27.55;9.43;;;18.50;97.50;;;;;;5039861;28;20068;-71
2022/03/24 10:27:11;;;;;;;25.50;9.80;;;18.60;97.20;;;;;;5046815;28;20033;-70
2022/03/24 10:29:37;;;;;;;26.92;10.30;;;18.70;96.80;;;;;;5046645;28;20045;-73
2022/03/24 10:32:09;;;;;;;24.10;10.05;;;18.80;96.10;;;;;;5046708;28;20021;-73
2022/03/24 10:34:38;;;;;;;36.10;10.63;;;18.80;96.00;;;;;;5028830;28;20112;-72
2022/03/24 10:37:09;;;;;;;29.00;10.55;;;18.90;95.60;;;;;;5046711;28;20041;-72
2022/03/24 10:39:36;;;;;;;29.38;10.73;;;19.00;94.80;;;;;;5045461;28;20018;-72
2022/03/24 10:42:16;;;;;;;29.05;9.07;;;19.10;95.50;;;;;;5046543;28;20049;-71
2022/03/24 10:45:18;;;;;;;21.35;9.80;;;19.20;94.20;;;;;;5046456;28;20393;-73
2022/03/24 10:48:02;;;;;;;23.02;10.57;;;19.30;94.00;;;;;;5046408;28;20477;-71
2022/03/24 10:50:31;;;;;;;22.08;9.40;;;19.40;94.10;;;;;;5046542;28;20057;-71
2022/03/24 10:52:59;;;;;;;18.48;8.68;;;19.60;94.70;;;;;;5046363;28;20108;-71
2022/03/24 10:55:45;;;;;;;27.67;10.05;;;19.70;95.10;;;;;;5042570;28;20030;-72
2022/03/24 10:58:39;;;;;;;23.98;9.73;;;19.90;93.90;;;;;;5028539;28;20064;-74
2022/03/24 11:01:10;;;;;;;24.90;9.60;;;20.10;92.30;;;;;;5025672;28;20022;-72
2022/03/24 11:03:36;;;;;;;26.08;9.10;;;20.20;93.60;;;;;;5026269;28;20033;-73
2022/03/24 11:06:09;;;;;;;26.15;9.55;;;20.20;93.00;;;;;;5025762;28;20044;-72
2022/03/24 11:08:36;;;;;;;39.55;11.15;;;20.30;93.00;;;;;;5041743;28;20041;-71
2022/03/24 11:11:07;;;;;;;21.40;9.20;;;20.50;93.40;;;;;;5041091;28;20056;-70
2022/03/24 11:13:59;;;;;;;30.75;10.80;;;20.70;92.60;;;;;;5045393;28;20390;-72
2022/03/24 11:16:30;;;;;;;26.80;10.23;;;20.80;92.10;;;;;;5045090;28;20037;-73
2022/03/24 11:18:58;;;;;;;26.05;9.75;;;20.90;92.90;;;;;;5045402;28;20076;-72
2022/03/24 11:21:42;;;;;;;33.72;10.80;;;21.10;93.00;;;;;;5045663;28;20022;-71
2022/03/24 11:24:07;;;;;;;28.58;10.63;;;21.20;91.70;;;;;;5043048;28;20037;-71
2022/03/24 11:26:35;;;;;;;26.75;11.23;;;21.40;92.00;;;;;;5044698;28;20077;-70
2022/03/24 11:29:05;;;;;;;28.40;10.70;;;21.40;91.70;;;;;;5045229;28;20033;-73
2022/03/24 11:31:32;;;;;;;25.58;10.82;;;21.50;91.40;;;;;;5037070;28;20022;-71
2022/03/24 11:34:04;;;;;;;27.05;11.23;;;21.50;92.30;;;;;;5036436;28;20018;-73
2022/03/24 11:36:31;;;;;;;25.90;10.50;;;21.70;91.70;;;;;;5035312;28;20060;-73
2022/03/24 11:38:59;;;;;;;20.67;9.68;;;21.80;90.10;;;;;;5022608;28;20026;-71
2022/03/24 11:41:29;;;;;;;37.50;12.05;;;21.90;90.60;;;;;;5025273;28;20030;-72
2022/03/24 11:44:03;;;;;;;22.65;10.95;;;22.00;89.20;;;;;;5024725;28;20037;-71
2022/03/24 11:46:53;;;;;;;24.95;12.07;;;22.10;90.40;;;;;;5024817;28;20022;-72
2022/03/24 11:49:23;;;;;;;31.70;11.90;;;22.30;89.30;;;;;;5025011;28;20092;-72
2022/03/24 11:51:57;;;;;;;25.77;11.43;;;22.50;88.70;;;;;;5025151;28;20026;-72
2022/03/24 11:54:31;;;;;;;25.42;11.02;;;22.60;88.60;;;;;;5024781;28;20029;-72
2022/03/24 11:57:21;;;;;;;22.42;9.93;;;22.60;86.70;;;;;;5025104;28;20026;-72
2022/03/24 11:59:50;;;;;;;34.15;10.80;;;22.70;85.70;;;;;;5023237;28;20018;-73
2022/03/24 12:02:21;;;;;;;23.92;9.18;;;22.80;88.10;;;;;;5024666;28;20041;-71
2022/03/24 12:04:49;;;;;;;26.42;11.40;;;23.00;85.60;;;;;;5024718;28;20076;-72
2022/03/24 12:08:02;;;;;;;24.83;10.18;;;22.90;86.90;;;;;;5034032;28;20022;-73
2022/03/24 12:10:31;;;;;;;;;;;23.10;84.60;;;;;;5025819;28;20108;-71
2022/03/24 12:13:02;;;;;;;28.15;9.35;;;23.30;81.50;;;;;;5024328;28;19989;-71
2022/03/24 12:15:28;;;;;;;30.25;9.70;;;23.30;87.10;;;;;;5024044;28;20026;-70
2022/03/24 12:18:06;;;;;;;22.25;9.48;;;23.40;84.90;;;;;;5023122;28;20057;-71
2022/03/24 12:20:44;;;;;;;23.13;9.52;;;23.50;82.70;;;;;;5049237;28;20033;-71
2022/03/24 12:23:10;;;;;;;27.15;9.15;;;23.70;81.40;;;;;;5044149;28;20044;-72
2022/03/24 12:25:37;;;;;;;23.63;9.38;;;23.90;83.90;;;;;;5044702;28;20030;-69
2022/03/24 12:28:10;;;;;;;25.42;10.35;;;24.00;81.80;;;;;;5044369;28;20060;-70
2022/03/24 12:30:44;;;;;;;20.65;9.48;;;24.00;80.50;;;;;;5044202;28;20045;-71
2022/03/24 12:36:38;;;;;;;19.40;8.38;;;24.20;77.50;;;;;;5060438;28;19912;-70
2022/03/24 12:39:05;;;;;;;28.02;9.50;;;24.30;79.60;;;;;;5054007;28;20025;-73
2022/03/24 12:41:30;;;;;;;24.77;9.82;;;24.40;81.30;;;;;;5055654;28;20036;-71
2022/03/24 12:44:11;;;;;;;19.90;9.10;;;24.50;80.60;;;;;;5055825;28;20029;-71
2022/03/24 12:46:44;;;;;;;20.85;9.55;;;24.70;78.50;;;;;;5056180;28;20118;-73
2022/03/24 12:49:14;;;;;;;28.60;9.57;;;24.70;79.80;;;;;;5061933;28;20033;-69
2022/03/24 12:52:05;;;;;;;24.88;9.95;;;24.80;78.50;;;;;;5044379;28;20030;-70
2022/03/24 12:54:53;;;;;;;25.88;10.18;;;25.00;77.10;;;;;;5043619;28;20137;-70
2022/03/24 12:57:27;;;;;;;25.33;10.40;;;25.00;75.10;;;;;;5055067;28;20025;-72
2022/03/24 12:59:54;;;;;;;22.27;9.38;;;24.60;77.00;;;;;;5055011;28;20064;-71
2022/03/24 13:02:21;;;;;;;19.42;8.98;;;24.70;79.00;;;;;;5050799;28;20044;-72
2022/03/24 13:04:52;;;;;;;24.00;10.50;;;24.90;78.70;;;;;;5031590;28;20029;-74
2022/03/24 13:07:24;;;;;;;21.15;9.45;;;25.10;76.90;;;;;;5048448;28;20535;-72
2022/03/24 13:10:12;;;;;;;28.67;10.10;;;25.20;77.20;;;;;;5026248;28;20365;-74
2022/03/24 13:12:43;;;;;;;23.80;9.55;;;25.30;75.40;;;;;;5033663;28;20055;-72
2022/03/24 13:15:35;;;;;;;22.83;10.07;;;25.40;76.90;;;;;;5050959;28;20063;-71
2022/03/24 13:18:08;;;;;;;27.33;10.07;;;25.40;73.40;;;;;;5043855;28;20042;-73
2022/03/24 13:20:38;;;;;;;33.08;10.43;;;25.40;75.30;;;;;;5050585;28;20029;-72
2022/03/24 13:23:11;;;;;;;24.67;10.85;;;25.40;75.30;;;;;;5053904;28;20045;-72
2022/03/24 13:25:49;;;;;;;23.42;8.65;;;25.40;75.80;;;;;;5046352;28;20059;-72
2022/03/24 13:28:16;;;;;;;21.38;9.35;;;25.40;75.10;;;;;;5048943;28;20119;-72
2022/03/24 13:30:42;;;;;;;18.95;8.68;;;25.50;76.00;;;;;;5063588;28;20032;-73
2022/03/24 13:33:12;;;;;;;27.90;8.82;;;25.40;75.70;;;;;;5052458;28;20052;-72
2022/03/24 13:35:49;;;;;;;16.92;8.63;;;25.50;74.70;;;;;;5047220;28;20029;-72
2022/03/24 13:38:24;;;;;;;21.50;9.02;;;25.60;74.70;;;;;;5046052;28;20025;-71
2022/03/24 13:40:58;;;;;;;18.08;7.88;;;25.90;74.90;;;;;;5047573;28;20460;-71
2022/03/24 13:43:25;;;;;;;25.00;9.80;;;26.20;75.00;;;;;;5047554;28;20045;-72
2022/03/24 13:45:52;;;;;;;18.67;8.82;;;26.40;74.20;;;;;;5062242;28;20025;-73
2022/03/24 13:48:23;;;;;;;17.50;9.00;;;26.50;73.40;;;;;;5065533;28;20048;-71
2022/03/24 13:51:19;;;;;;;20.58;8.05;;;26.50;72.30;;;;;;5048201;28;20650;-74
2022/03/24 13:53:44;;;;;;;21.80;7.13;;;26.60;69.20;;;;;;5065180;28;20086;-72
2022/03/24 13:56:13;;;;;;;23.45;7.70;;;26.60;72.60;;;;;;5066766;28;20028;-73
2022/03/24 13:58:43;;;;;;;19.95;8.90;;;26.80;72.60;;;;;;5064376;28;20020;-72
2022/03/24 14:01:20;;;;;;;22.05;8.48;;;27.00;71.60;;;;;;5064196;28;20020;-73
2022/03/24 14:03:50;;;;;;;21.65;8.55;;;26.90;69.80;;;;;;5063301;28;20049;-71
2022/03/24 14:06:18;;;;;;;19.27;7.82;;;26.90;70.50;;;;;;5066171;28;20021;-73
2022/03/24 14:08:53;;;;;;;19.13;8.32;;;27.00;71.90;;;;;;5064141;28;20045;-72
2022/03/24 14:11:26;;;;;;;18.40;8.85;;;27.20;70.70;;;;;;5066373;28;20029;-71
2022/03/24 14:13:54;;;;;;;17.33;8.25;;;27.30;69.20;;;;;;5066402;28;20098;-71
2022/03/24 14:16:25;;;;;;;18.40;7.35;;;27.40;69.40;;;;;;5065674;28;20021;-73
2022/03/24 14:19:18;;;;;;;17.30;6.88;;;27.50;69.80;;;;;;5056670;28;20049;-72
2022/03/24 14:22:12;;;;;;;19.70;7.78;;;27.70;66.90;;;;;;5054948;28;20028;-72
2022/03/24 14:24:42;;;;;;;16.75;6.63;;;27.70;65.80;;;;;;5062205;28;20041;-72
2022/03/24 14:27:24;;;;;;;22.08;7.47;;;27.20;67.60;;;;;;5064874;28;20036;-73
2022/03/24 14:30:11;;;;;;;16.10;7.05;;;26.80;67.60;;;;;;5066007;28;20128;-72
2022/03/24 14:32:48;;;;;;;21.77;8.32;;;26.50;68.60;;;;;;5049785;28;20025;-73
2022/03/24 14:35:18;;;;;;;16.30;7.13;;;26.70;68.00;;;;;;5043757;28;20029;-72
2022/03/24 14:37:53;;;;;;;22.60;7.97;;;26.50;69.20;;;;;;5045342;28;20037;-72
2022/03/24 14:40:38;;;;;;;20.05;7.47;;;26.70;69.50;;;;;;5055358;28;20056;-73
2022/03/24 14:43:13;;;;;;;13.50;6.68;;;27.00;66.80;;;;;;5065498;28;20043;-73
2022/03/24 14:45:42;;;;;;;14.95;6.85;;;27.10;68.60;;;;;;5066473;28;20060;-72
2022/03/24 14:48:09;;;;;;;14.65;6.93;;;27.30;67.90;;;;;;5046151;28;20032;-73
2022/03/24 14:50:36;;;;;;;20.38;7.40;;;27.60;68.20;;;;;;5046170;28;20056;-73
2022/03/24 14:53:05;;;;;;;16.10;6.75;;;27.70;67.40;;;;;;5046501;28;20029;-73
2022/03/24 14:55:30;;;;;;;16.27;6.82;;;28.00;67.00;;;;;;5045792;28;20474;-73
2022/03/24 14:57:56;;;;;;;16.30;6.80;;;28.20;66.80;;;;;;5058303;28;20099;-72
2022/03/24 15:00:22;;;;;;;21.92;7.25;;;28.30;66.20;;;;;;5064601;28;20037;-73
2022/03/24 15:02:48;;;;;;;13.35;5.72;;;28.00;65.70;;;;;;5060751;28;20060;-72
2022/03/24 15:05:14;;;;;;;14.50;6.22;;;27.80;66.20;;;;;;5069160;28;20025;-72
2022/03/24 15:07:44;;;;;;;17.65;6.97;;;27.70;65.90;;;;;;5066741;28;20048;-73
2022/03/24 15:10:12;;;;;;;13.50;6.07;;;27.60;64.80;;;;;;5081869;28;20104;-72
2022/03/24 15:12:42;;;;;;;17.20;7.68;;;27.60;65.00;;;;;;5085652;28;20032;-72
2022/03/24 15:17:56;;;;;;;21.77;7.38;;;27.40;65.40;;;;;;5084548;28;20143;-72
2022/03/24 15:20:26;;;;;;;14.45;7.15;;;27.40;65.10;;;;;;5069708;28;20048;-72
2022/03/24 15:22:52;;;;;;;14.07;7.15;;;27.30;65.00;;;;;;5057765;28;20044;-72
2022/03/24 15:25:18;;;;;;;16.10;6.75;;;27.30;65.10;;;;;;5053651;28;20029;-73
2022/03/24 15:27:43;;;;;;;15.18;6.60;;;27.40;64.80;;;;;;5052681;28;20025;-71
2022/03/24 15:30:10;;;;;;;21.95;6.90;;;27.40;64.00;;;;;;5060513;28;20033;-73
2022/03/24 15:32:36;;;;;;;19.98;6.55;;;27.20;64.10;;;;;;5053810;28;20030;-72
2022/03/24 15:35:02;;;;;;;14.02;6.45;;;27.00;64.10;;;;;;5061940;28;20100;-71
2022/03/24 15:37:28;;;;;;;18.90;7.35;;;26.90;63.80;;;;;;5069043;28;20381;-72
2022/03/24 15:39:55;;;;;;;15.25;7.03;;;26.80;64.40;;;;;;5085347;28;20051;-72
2022/03/24 15:42:21;;;;;;;17.23;5.95;;;26.80;64.40;;;;;;5065246;28;20033;-72
2022/03/24 15:44:47;;;;;;;29.40;7.18;;;26.80;64.80;;;;;;5053260;28;20021;-72
2022/03/24 15:47:18;;;;;;;14.05;6.60;;;26.90;65.00;;;;;;5046716;28;20036;-72
2022/03/24 15:49:44;;;;;;;15.07;6.95;;;26.80;65.10;;;;;;5051055;28;20038;-72
2022/03/24 15:52:10;;;;;;;19.77;7.22;;;26.40;65.10;;;;;;5044676;28;20091;-73
2022/03/24 15:54:39;;;;;;;14.57;7.03;;;26.10;65.10;;;;;;5052279;28;20027;-73
2022/03/24 15:57:09;;;;;;;20.98;8.02;;;26.00;65.30;;;;;;5065253;28;20021;-72
2022/03/24 15:59:35;;;;;;;14.48;7.18;;;25.90;65.40;;;;;;5051547;28;20033;-72
2022/03/24 16:02:01;;;;;;;19.55;7.57;;;25.70;65.40;;;;;;5043432;28;20033;-72
2022/03/24 16:04:27;;;;;;;19.20;7.50;;;25.60;65.30;;;;;;5054425;28;20041;-72
2022/03/24 16:06:53;;;;;;;18.88;7.75;;;25.50;65.50;;;;;;5055433;28;20401;-71
2022/03/24 16:09:18;;;;;;;19.20;6.90;;;25.50;65.70;;;;;;5063496;28;20045;-72
2022/03/24 16:11:44;;;;;;;14.43;6.85;;;25.50;65.70;;;;;;5047525;28;20049;-71
2022/03/24 16:14:10;;;;;;;22.52;6.93;;;25.40;65.50;;;;;;5075026;28;20017;-71
2022/03/24 16:16:43;;;;;;;21.75;7.05;;;25.30;65.50;;;;;;5064517;28;20081;-73
2022/03/24 16:19:09;;;;;;;16.70;7.15;;;25.20;65.80;;;;;;5042781;28;20045;-72
2022/03/24 16:21:35;;;;;;;18.38;6.78;;;25.00;66.10;;;;;;5044069;28;20018;-72
2022/03/24 16:24:01;;;;;;;21.33;7.70;;;25.00;66.30;;;;;;5050342;28;20063;-70
2022/03/24 16:26:26;;;;;;;17.40;7.18;;;24.90;66.60;;;;;;5061487;28;20028;-71
2022/03/24 16:28:52;;;;;;;18.40;7.97;;;24.60;68.30;;;;;;5058022;28;20041;-69
2022/03/24 16:31:18;;;;;;;15.25;7.10;;;24.50;67.30;;;;;;5048857;28;20044;-72
2022/03/24 16:34:04;;;;;;;15.55;6.43;;;24.30;67.20;;;;;;5083739;28;20059;-71
2022/03/24 16:36:30;;;;;;;14.43;6.75;;;24.10;67.30;;;;;;5082687;28;20033;-72
2022/03/24 16:38:55;;;;;;;19.08;6.43;;;23.80;67.10;;;;;;5045077;28;20025;-71
2022/03/24 16:41:22;;;;;;;16.83;6.60;;;23.30;67.30;;;;;;5062840;28;20050;-71
2022/03/24 16:43:47;;;;;;;15.15;6.55;;;22.80;67.50;;;;;;5076284;28;20020;-71
2022/03/24 16:46:13;;;;;;;22.67;7.22;;;22.20;69.00;;;;;;5084364;28;20035;-72
2022/03/24 16:48:39;;;;;;;13.80;6.93;;;21.70;71.90;;;;;;5075677;28;20036;-71
2022/03/24 16:51:05;;;;;;;16.48;7.25;;;21.30;72.10;;;;;;5064681;28;20029;-74
2022/03/24 16:53:30;;;;;;;19.30;7.00;;;21.00;72.60;;;;;;5063104;28;20035;-70
2022/03/24 16:55:56;;;;;;;22.83;6.60;;;20.70;73.20;;;;;;5055781;28;20055;-70
2022/03/24 16:58:22;;;;;;;19.70;7.57;;;20.40;74.20;;;;;;5049866;28;20037;-71
2022/03/24 17:00:48;;;;;;;13.48;5.93;;;20.10;74.40;;;;;;5058843;28;20029;-70
2022/03/24 17:03:15;;;;;;;19.58;7.22;;;20.00;75.20;;;;;;5053044;28;20022;-71
2022/03/24 17:05:41;;;;;;;24.92;8.38;;;19.80;75.80;;;;;;5052968;28;20059;-71
2022/03/24 17:08:07;;;;;;;21.05;6.53;;;19.70;76.00;;;;;;5058764;28;20029;-71
2022/03/24 17:10:33;;;;;;;19.33;6.93;;;19.50;76.00;;;;;;5065072;28;20048;-73
2022/03/24 17:13:05;;;;;;;20.17;7.07;;;19.40;76.50;;;;;;5060297;28;20029;-72
2022/03/24 17:15:30;;;;;;;23.15;6.20;;;19.20;76.80;;;;;;5067646;28;20480;-70
2022/03/24 17:17:56;;;;;;;20.38;6.75;;;19.10;76.70;;;;;;5066017;28;20079;-70
2022/03/24 17:20:22;;;;;;;18.25;6.10;;;19.00;77.20;;;;;;5067561;28;20024;-71
2022/03/24 17:22:48;;;;;;;18.98;7.68;;;18.90;78.90;;;;;;5067881;28;20048;-71
2022/03/24 17:25:17;;;;;;;15.13;6.93;;;18.80;78.00;;;;;;5067708;28;20028;-72
2022/03/24 17:27:44;;;;;;;24.33;7.00;;;18.70;78.20;;;;;;5066909;28;20028;-71
2022/03/24 17:30:13;;;;;;;30.15;8.90;;;18.50;79.00;;;;;;5060816;28;20036;-69
2022/03/24 17:32:43;;;;;;;22.45;8.57;;;18.40;79.60;;;;;;5067768;28;20032;-70
2022/03/24 17:35:14;;;;;;;26.05;8.65;;;18.30;80.30;;;;;;5066060;28;20533;-69
2022/03/24 17:37:44;;;;;;;16.73;7.45;;;18.10;80.40;;;;;;5049261;28;20060;-70
2022/03/24 17:40:11;;;;;;;18.35;8.60;;;18.00;80.90;;;;;;5058054;28;20037;-71
2022/03/24 17:42:41;;;;;;;21.27;8.43;;;17.80;81.00;;;;;;5064754;28;20033;-71
2022/03/24 17:45:08;;;;;;;16.73;7.18;;;17.70;81.10;;;;;;5062099;28;20033;-71
2022/03/24 17:47:35;;;;;;;19.45;7.38;;;17.60;82.00;;;;;;5047612;28;20037;-71
2022/03/24 17:50:04;;;;;;;17.33;8.25;;;17.50;82.00;;;;;;5066133;28;20037;-71
2022/03/24 17:52:30;;;;;;;17.08;8.68;;;17.40;82.30;;;;;;5067393;28;20028;-71
2022/03/24 17:54:57;;;;;;;25.65;9.05;;;17.30;82.70;;;;;;5066821;28;20052;-69
2022/03/24 17:57:23;;;;;;;23.10;9.32;;;17.20;84.50;;;;;;5053632;28;20025;-70
2022/03/24 17:59:52;;;;;;;22.80;8.32;;;17.00;84.50;;;;;;5056365;28;20051;-73
2022/03/24 18:02:18;;;;;;;21.13;9.27;;;16.90;84.80;;;;;;5059249;28;20025;-70
2022/03/24 18:04:43;;;;;;;31.75;10.75;;;16.80;85.80;;;;;;5082569;28;20035;-69
2022/03/24 18:07:09;;;;;;;17.40;8.20;;;16.70;85.10;;;;;;5055985;28;20156;-71
2022/03/24 18:09:35;;;;;;;24.65;8.70;;;16.70;85.90;;;;;;5065533;28;20037;-70
2022/03/24 18:12:01;;;;;;;25.33;8.65;;;16.60;87.20;;;;;;5058103;28;20029;-70
2022/03/24 18:14:27;;;;;;;17.67;8.18;;;16.60;86.50;;;;;;5062097;28;20036;-70
2022/03/24 18:16:52;;;;;;;28.58;9.38;;;16.50;87.10;;;;;;5052515;28;20029;-70
2022/03/24 18:19:18;;;;;;;29.83;8.43;;;16.50;88.40;;;;;;5061629;28;20061;-71
2022/03/24 18:21:45;;;;;;;19.20;8.63;;;16.30;88.50;;;;;;5058441;28;20063;-71
2022/03/24 18:24:14;;;;;;;25.35;9.52;;;16.20;89.30;;;;;;5072358;28;20060;-70
2022/03/24 18:26:42;;;;;;;16.60;8.57;;;16.10;89.70;;;;;;5071530;28;20029;-70
2022/03/24 18:29:08;;;;;;;28.90;9.13;;;16.00;89.80;;;;;;5066145;28;20041;-71
2022/03/24 18:31:35;;;;;;;22.52;8.23;;;15.80;90.20;;;;;;5058819;28;20028;-70
2022/03/24 18:34:01;;;;;;;21.85;9.20;;;15.80;90.40;;;;;;5054097;28;20025;-71
2022/03/24 18:36:26;;;;;;;24.75;9.90;;;15.60;90.60;;;;;;5064005;28;20033;-72
2022/03/24 18:38:52;;;;;;;31.17;9.75;;;15.60;90.80;;;;;;5057989;28;20039;-71
2022/03/24 18:41:19;;;;;;;20.80;8.38;;;15.40;91.10;;;;;;5063586;28;20059;-70
2022/03/24 18:43:46;;;;;;;33.75;11.30;;;15.40;91.10;;;;;;5064522;28;20147;-70
2022/03/24 18:46:15;;;;;;;21.25;10.35;;;15.30;91.20;;;;;;5045745;28;20377;-71
2022/03/24 18:48:42;;;;;;;38.10;12.93;;;15.10;91.70;;;;;;5049315;28;20029;-74
2022/03/24 18:51:08;;;;;;;30.30;12.90;;;15.20;92.00;;;;;;5055420;28;20021;-72
2022/03/24 18:53:34;;;;;;;21.45;10.18;;;15.10;92.20;;;;;;5066988;28;20075;-72
2022/03/24 18:56:03;;;;;;;37.67;13.77;;;15.00;92.10;;;;;;5072940;28;20029;-70
2022/03/24 18:58:29;;;;;;;44.78;13.45;;;14.90;92.30;;;;;;5031114;28;20028;-70
2022/03/24 19:00:55;;;;;;;33.28;12.82;;;14.80;92.50;;;;;;5060218;28;20041;-70
2022/03/24 19:03:21;;;;;;;38.50;13.55;;;14.70;93.00;;;;;;5052771;28;20025;-70
2022/03/24 19:05:46;;;;;;;22.90;11.15;;;14.70;92.90;;;;;;5062547;28;20029;-70
2022/03/24 19:08:12;;;;;;;30.70;11.48;;;14.60;92.60;;;;;;5062059;28;20025;-70
2022/03/24 19:10:38;;;;;;;27.27;10.73;;;14.60;92.50;;;;;;5054003;28;20037;-70
2022/03/24 19:13:04;;;;;;;30.05;10.85;;;14.70;92.60;;;;;;5056899;28;20056;-70
2022/03/24 19:15:30;;;;;;;22.75;10.43;;;14.60;92.40;;;;;;5046209;28;20097;-70
2022/03/24 19:17:55;;;;;;;24.77;10.43;;;14.70;92.70;;;;;;5064562;28;20049;-70
2022/03/24 19:20:22;;;;;;;31.85;11.63;;;14.50;92.70;;;;;;5077025;28;20032;-70
2022/03/24 19:22:48;;;;;;;23.23;10.43;;;14.50;92.70;;;;;;5085536;28;20032;-70
2022/03/24 19:25:14;;;;;;;30.98;11.68;;;14.50;92.80;;;;;;5067559;28;20025;-70
2022/03/24 19:27:41;;;;;;;42.28;11.80;;;14.30;93.20;;;;;;5055547;28;20567;-70
2022/03/24 19:30:12;;;;;;;27.50;12.02;;;14.50;93.30;;;;;;5044461;28;20040;-70
2022/03/24 19:32:42;;;;;;;24.15;11.75;;;14.30;93.50;;;;;;5047393;28;20389;-72
2022/03/24 19:35:08;;;;;;;40.70;11.88;;;14.30;93.90;;;;;;5065882;28;20027;-70
2022/03/24 19:37:34;;;;;;;34.90;12.82;;;14.20;94.00;;;;;;5065261;28;20037;-71
2022/03/24 19:39:59;;;;;;;30.85;12.55;;;14.20;94.20;;;;;;5057128;28;20036;-70
2022/03/24 19:42:27;;;;;;;41.50;13.20;;;14.00;94.40;;;;;;5044712;28;20075;-70
2022/03/24 19:44:54;;;;;;;35.03;12.70;;;14.20;94.60;;;;;;5062621;28;20843;-70
2022/03/24 19:47:20;;;;;;;28.08;12.18;;;14.10;94.70;;;;;;5064242;28;20033;-71
2022/03/24 19:49:47;;;;;;;41.78;13.13;;;14.00;94.80;;;;;;5064426;28;20048;-70
2022/03/24 19:52:14;;;;;;;35.67;11.70;;;14.10;95.00;;;;;;5059896;28;20048;-70
2022/03/24 19:54:40;;;;;;;29.40;12.55;;;13.90;95.10;;;;;;5062553;28;20029;-69
2022/03/24 19:57:05;;;;;;;28.38;12.05;;;13.80;95.40;;;;;;5061528;28;20025;-70
2022/03/24 19:59:32;;;;;;;28.33;12.00;;;13.70;95.80;;;;;;5058972;28;20036;-68
2022/03/24 20:02:01;;;;;;;36.85;10.95;;;13.70;96.00;;;;;;5051939;28;20052;-69
2022/03/24 20:04:34;;;;;;;33.05;11.75;;;13.60;96.40;;;;;;5061556;28;20112;-70
2022/03/24 20:07:00;;;;;;;31.33;12.80;;;13.60;96.30;;;;;;5053727;28;20443;-69